createdAt,value
2018-04-28T00:00:31.363Z,2.50
2018-04-28T00:02:59.494Z,2.83
2018-04-28T00:05:26.933Z,2.90
2018-04-28T00:07:54.493Z,3.30
2018-04-28T00:10:21.860Z,2.40
2018-04-28T00:12:50.048Z,3.40
2018-04-28T00:15:17.507Z,2.90
2018-04-28T00:17:45.455Z,2.60
2018-04-28T00:20:14.493Z,2.30
2018-04-28T00:22:54.609Z,2.87
2018-04-28T00:25:22.777Z,3.00
2018-04-28T00:27:57.798Z,2.73
2018-04-28T00:30:25.989Z,2.60
2018-04-28T00:32:53.368Z,3.03
2018-04-28T00:35:34.620Z,2.60
2018-04-28T00:38:02.089Z,2.90
2018-04-28T00:40:32.102Z,3.07
2018-04-28T00:42:59.506Z,2.50
2018-04-28T00:48:44.133Z,3.00
2018-04-28T00:54:25.950Z,3.13
2018-04-28T00:56:58.848Z,2.70
2018-04-28T00:59:30.829Z,3.10
2018-04-28T01:02:05.738Z,2.70
2018-04-28T01:04:46.306Z,2.90
2018-04-28T01:07:18.305Z,2.80
2018-04-28T01:12:42.059Z,2.60
2018-04-28T01:15:16.090Z,2.30
2018-04-28T01:17:55.069Z,2.63
2018-04-28T01:20:34.417Z,3.07
2018-04-28T01:23:07.549Z,3.27
2018-04-28T01:25:43.769Z,3.30
2018-04-28T01:28:11.965Z,3.03
2018-04-28T01:30:52.504Z,3.27
2018-04-28T01:33:21.228Z,2.83
2018-04-28T01:36:09.113Z,3.20
2018-04-28T01:38:39.054Z,2.90
2018-04-28T01:44:12.038Z,3.27
2018-04-28T01:46:40.133Z,3.07
2018-04-28T01:49:09.917Z,3.50
2018-04-28T01:51:37.390Z,4.00
2018-04-28T01:54:24.381Z,3.33
2018-04-28T01:56:56.579Z,3.03
2018-04-28T01:59:24.755Z,3.57
2018-04-28T02:01:52.221Z,3.80
2018-04-28T02:04:20.164Z,4.07
2018-04-28T02:06:50.469Z,4.00
2018-04-28T02:09:21.417Z,3.03
2018-04-28T02:11:52.506Z,3.30
2018-04-28T02:17:16.878Z,3.60
2018-04-28T02:19:48.937Z,3.20
2018-04-28T02:25:26.042Z,3.13
2018-04-28T02:31:06.722Z,3.90
2018-04-28T02:36:34.617Z,3.77
2018-04-28T02:39:02.079Z,3.80
2018-04-28T02:44:27.517Z,3.30
2018-04-28T02:47:01.429Z,3.70
2018-04-28T02:49:46.690Z,3.60
2018-04-28T02:52:22.944Z,3.73
2018-04-28T02:54:51.858Z,4.03
2018-04-28T02:57:23.106Z,4.63
2018-04-28T02:59:54.162Z,4.20
2018-04-28T03:02:26.973Z,3.70
2018-04-28T03:04:56.830Z,4.33
2018-04-28T03:10:37.553Z,4.53
2018-04-28T03:13:16.632Z,5.00
2018-04-28T03:15:44.093Z,5.20
2018-04-28T03:18:11.497Z,4.67
2018-04-28T03:20:49.640Z,4.13
2018-04-28T03:23:35.355Z,4.97
2018-04-28T03:29:13.409Z,4.27
2018-04-28T03:31:40.781Z,4.53
2018-04-28T03:34:11.449Z,4.80
2018-04-28T03:36:48.464Z,4.50
2018-04-28T03:39:22.721Z,4.93
2018-04-28T03:41:50.184Z,6.20
2018-04-28T03:44:32.459Z,5.00
2018-04-28T03:50:13.428Z,5.10
2018-04-28T03:53:02.741Z,5.00
2018-04-28T03:55:30.201Z,4.60
2018-04-28T03:58:09.755Z,4.30
2018-04-28T04:00:48.970Z,4.03
2018-04-28T04:03:22.869Z,3.90
2018-04-28T04:05:52.924Z,5.20
2018-04-28T04:08:26.129Z,4.63
2018-04-28T04:14:14.384Z,4.50
2018-04-28T04:16:47.176Z,5.97
2018-04-28T04:22:29.921Z,5.67
2018-04-28T04:28:00.976Z,5.77
2018-04-28T04:30:29.177Z,5.83
2018-04-28T04:33:05.037Z,6.33
2018-04-28T04:35:41.422Z,5.90
2018-04-28T04:38:14.408Z,6.70
2018-04-28T04:40:45.533Z,5.43
2018-04-28T04:43:22.624Z,5.60
2018-04-28T04:45:56.050Z,5.83
2018-04-28T04:48:46.142Z,5.80
2018-04-28T04:54:44.861Z,6.60
2018-04-28T04:57:21.077Z,6.60
2018-04-28T05:00:00.245Z,6.40
2018-04-28T05:02:31.269Z,6.93
2018-04-28T05:05:05.273Z,6.23
2018-04-28T05:07:42.298Z,5.00
2018-04-28T05:10:17.332Z,5.33
2018-04-28T05:15:46.094Z,5.33
2018-04-28T05:18:25.229Z,5.30
2018-04-28T05:20:58.425Z,4.07
2018-04-28T05:23:37.637Z,4.00
2018-04-28T05:29:37.415Z,4.83
2018-04-28T05:32:13.729Z,4.40
2018-04-28T05:37:56.480Z,4.07
2018-04-28T05:40:29.835Z,4.93
2018-04-28T05:46:05.545Z,4.83
2018-04-28T05:48:44.700Z,4.17
2018-04-28T05:51:20.025Z,4.53
2018-04-28T05:53:52.349Z,4.77
2018-04-28T05:56:31.597Z,4.00
2018-04-28T05:59:16.494Z,4.53
2018-04-28T06:01:44.891Z,4.63
2018-04-28T06:04:24.957Z,4.43
2018-04-28T06:10:09.715Z,4.83
2018-04-28T06:12:43.099Z,3.80
2018-04-28T06:15:14.040Z,3.93
2018-04-28T06:17:51.140Z,4.30
2018-04-28T06:20:27.381Z,4.30
2018-04-28T06:22:54.847Z,4.13
2018-04-28T06:25:22.311Z,4.40
2018-04-28T06:27:49.762Z,4.60
2018-04-28T06:30:17.145Z,4.07
2018-04-28T06:32:44.555Z,3.53
2018-04-28T06:35:11.943Z,4.10
2018-04-28T06:37:39.353Z,4.30
2018-04-28T06:40:06.761Z,3.60
2018-04-28T06:42:34.190Z,3.83
2018-04-28T06:45:01.589Z,3.53
2018-04-28T06:47:29.003Z,4.50
2018-04-28T06:49:56.406Z,3.50
2018-04-28T06:52:23.817Z,3.60
2018-04-28T06:54:51.216Z,4.67
2018-04-28T06:57:18.616Z,3.83
2018-04-28T06:59:46.081Z,3.70
2018-04-28T07:02:13.485Z,4.37
2018-04-28T07:04:40.959Z,4.67
2018-04-28T07:07:08.289Z,4.23
2018-04-28T07:09:35.722Z,4.87
2018-04-28T07:12:03.164Z,4.23
2018-04-28T07:14:30.557Z,3.90
2018-04-28T07:16:57.968Z,4.30
2018-04-28T07:19:25.404Z,3.97
2018-04-28T07:21:52.803Z,4.17
2018-04-28T07:24:20.196Z,3.93
2018-04-28T07:26:47.875Z,4.57
2018-04-28T07:29:15.339Z,3.67
2018-04-28T07:31:42.653Z,4.47
2018-04-28T07:34:10.073Z,3.80
2018-04-28T07:36:37.468Z,3.77
2018-04-28T07:39:05.753Z,4.13
2018-04-28T07:41:33.150Z,3.60
2018-04-28T07:44:00.556Z,3.97
2018-04-28T07:46:27.945Z,3.60
2018-04-28T07:48:55.386Z,4.00
2018-04-28T07:51:22.833Z,3.40
2018-04-28T07:53:50.311Z,3.97
2018-04-28T07:56:17.697Z,3.97
2018-04-28T07:58:45.101Z,3.83
2018-04-28T08:01:12.594Z,4.00
2018-04-28T08:03:39.988Z,3.80
2018-04-28T08:06:07.472Z,3.80
2018-04-28T08:08:34.932Z,3.87
2018-04-28T08:11:02.353Z,5.03
2018-04-28T08:13:29.777Z,4.10
2018-04-28T08:15:57.172Z,3.83
2018-04-28T08:18:24.657Z,3.20
2018-04-28T08:20:52.055Z,3.93
2018-04-28T08:23:19.468Z,3.77
2018-04-28T08:25:46.865Z,3.10
2018-04-28T08:28:14.270Z,3.90
2018-04-28T08:30:41.744Z,3.50
2018-04-28T08:33:09.121Z,3.13
2018-04-28T08:35:36.560Z,3.70
2018-04-28T08:38:03.970Z,3.80
2018-04-28T08:40:31.466Z,3.60
2018-04-28T08:42:58.947Z,3.70
2018-04-28T08:45:26.431Z,4.77
2018-04-28T08:47:53.756Z,3.10
2018-04-28T08:50:21.157Z,3.90
2018-04-28T08:52:48.549Z,3.90
2018-04-28T08:55:16.024Z,4.20
2018-04-28T08:57:43.468Z,3.33
2018-04-28T09:00:22.905Z,3.30
2018-04-28T09:02:50.377Z,3.53
2018-04-28T09:05:17.817Z,3.77
2018-04-28T09:07:45.215Z,3.20
2018-04-28T09:10:12.614Z,3.20
2018-04-28T09:12:40.009Z,3.60
2018-04-28T09:15:07.444Z,4.40
2018-04-28T09:17:34.841Z,3.60
2018-04-28T09:20:02.252Z,4.20
2018-04-28T09:22:29.653Z,4.00
2018-04-28T09:24:57.049Z,2.90
2018-04-28T09:27:24.444Z,3.80
2018-04-28T09:29:51.844Z,3.00
2018-04-28T09:32:19.286Z,5.10
2018-04-28T09:34:46.683Z,3.33
2018-04-28T09:37:14.072Z,3.37
2018-04-28T09:39:41.485Z,3.70
2018-04-28T09:42:08.978Z,3.30
2018-04-28T09:44:36.384Z,4.10
2018-04-28T09:47:03.773Z,3.30
2018-04-28T09:49:31.181Z,3.40
2018-04-28T09:51:58.680Z,3.90
2018-04-28T09:54:26.081Z,3.10
2018-04-28T09:56:53.503Z,2.97
2018-04-28T09:59:20.964Z,3.37
2018-04-28T10:01:48.356Z,4.40
2018-04-28T10:04:21.488Z,3.60
2018-04-28T10:06:48.909Z,3.30
2018-04-28T10:09:16.325Z,3.73
2018-04-28T10:11:43.738Z,2.63
2018-04-28T10:14:11.131Z,3.20
2018-04-28T10:16:38.531Z,3.00
2018-04-28T10:19:05.920Z,3.03
2018-04-28T10:21:33.433Z,3.37
2018-04-28T10:24:01.338Z,2.47
2018-04-28T10:26:28.756Z,2.83
2018-04-28T10:28:56.142Z,2.43
2018-04-28T10:31:23.659Z,2.83
2018-04-28T10:33:51.054Z,2.57
2018-04-28T10:36:18.461Z,3.20
2018-04-28T10:38:45.889Z,3.00
2018-04-28T10:41:13.394Z,3.20
2018-04-28T10:43:40.781Z,2.67
2018-04-28T10:46:08.200Z,2.23
2018-04-28T10:48:35.616Z,3.63
2018-04-28T10:51:03.011Z,2.70
2018-04-28T10:53:30.421Z,3.07
2018-04-28T10:55:57.877Z,3.10
2018-04-28T10:58:25.273Z,3.53
2018-04-28T11:00:52.714Z,3.80
2018-04-28T11:03:20.138Z,2.87
2018-04-28T11:05:47.526Z,3.57
2018-04-28T11:08:14.975Z,3.20
2018-04-28T11:10:42.427Z,2.90
2018-04-28T11:13:09.825Z,3.17
2018-04-28T11:15:37.357Z,4.13
2018-04-28T11:18:04.772Z,4.03
2018-04-28T11:20:32.164Z,3.40
2018-04-28T11:22:59.574Z,4.00
2018-04-28T11:25:27.030Z,3.13
2018-04-28T11:27:54.418Z,3.43
2018-04-28T11:30:21.831Z,4.00
2018-04-28T11:32:49.288Z,3.20
2018-04-28T11:35:16.668Z,4.30
2018-04-28T11:37:44.077Z,3.63
2018-04-28T11:40:11.515Z,3.60
2018-04-28T11:42:38.901Z,3.57
2018-04-28T11:45:06.328Z,3.30
2018-04-28T11:47:33.739Z,3.97
2018-04-28T11:50:01.170Z,2.93
2018-04-28T11:52:28.601Z,3.10
2018-04-28T11:54:56.002Z,3.70
2018-04-28T11:57:23.417Z,3.20
2018-04-28T11:59:50.860Z,4.37
2018-04-28T12:02:18.288Z,3.90
2018-04-28T12:04:45.769Z,3.47
2018-04-28T12:07:13.182Z,2.90
2018-04-28T12:09:40.576Z,3.57
2018-04-28T12:12:08.046Z,4.33
2018-04-28T12:14:35.425Z,2.50
2018-04-28T12:17:02.823Z,2.93
2018-04-28T12:19:30.221Z,3.27
2018-04-28T12:21:57.681Z,3.33
2018-04-28T12:24:25.097Z,3.37
2018-04-28T12:26:52.493Z,3.43
2018-04-28T12:29:19.903Z,2.87
2018-04-28T12:31:47.285Z,2.57
2018-04-28T12:34:14.692Z,3.53
2018-04-28T12:36:42.110Z,2.77
2018-04-28T12:39:09.552Z,3.10
2018-04-28T12:41:36.969Z,4.13
2018-04-28T12:44:04.470Z,2.73
2018-04-28T12:46:31.924Z,3.43
2018-04-28T12:48:59.349Z,2.93
2018-04-28T12:51:26.732Z,3.70
2018-04-28T12:53:54.196Z,3.60
2018-04-28T12:56:21.669Z,3.80
2018-04-28T12:58:49.958Z,3.60
2018-04-28T13:01:17.369Z,2.57
2018-04-28T13:03:44.762Z,3.00
2018-04-28T13:06:12.308Z,3.00
2018-04-28T13:08:39.688Z,2.57
2018-04-28T13:11:07.125Z,2.83
2018-04-28T13:13:34.586Z,3.70
2018-04-28T13:16:01.993Z,2.87
2018-04-28T13:18:29.426Z,2.87
2018-04-28T13:20:56.840Z,3.43
2018-04-28T13:23:24.248Z,3.87
2018-04-28T13:25:51.637Z,3.30
2018-04-28T13:28:19.124Z,2.20
2018-04-28T13:30:46.517Z,2.73
2018-04-28T13:33:13.942Z,2.47
2018-04-28T13:35:41.341Z,2.30
2018-04-28T13:38:08.753Z,2.20
2018-04-28T13:40:36.196Z,1.70
2018-04-28T13:43:03.589Z,2.30
2018-04-28T13:45:31.005Z,2.60
2018-04-28T13:47:58.409Z,2.00
2018-04-28T13:50:25.854Z,3.30
2018-04-28T13:52:53.373Z,3.27
2018-04-28T13:55:20.830Z,2.40
2018-04-28T13:57:48.230Z,2.67
2018-04-28T14:00:15.632Z,2.90
2018-04-28T14:02:43.032Z,2.43
2018-04-28T14:05:10.429Z,2.73
2018-04-28T14:07:37.920Z,2.37
2018-04-28T14:10:05.477Z,2.43
2018-04-28T14:12:32.892Z,2.70
2018-04-28T14:15:00.290Z,2.97
2018-04-28T14:17:27.849Z,2.97
2018-04-28T14:19:55.249Z,2.83
2018-04-28T14:22:22.637Z,2.20
2018-04-28T14:24:50.032Z,3.30
2018-04-28T14:27:17.447Z,2.00
2018-04-28T14:29:44.856Z,2.77
2018-04-28T14:32:12.237Z,3.13
2018-04-28T14:34:39.645Z,2.70
2018-04-28T14:37:07.052Z,2.70
2018-04-28T14:39:34.485Z,2.80
2018-04-28T14:42:01.844Z,3.13
2018-04-28T14:44:29.255Z,2.80
2018-04-28T14:46:56.641Z,2.57
2018-04-28T14:49:24.045Z,3.40
2018-04-28T14:51:51.517Z,2.87
2018-04-28T14:54:18.992Z,2.27
2018-04-28T14:56:46.438Z,3.10
2018-04-28T14:59:13.897Z,2.47
2018-04-28T15:01:41.301Z,2.37
2018-04-28T15:04:08.804Z,2.87
2018-04-28T15:06:36.237Z,3.13
2018-04-28T15:09:03.651Z,3.77
2018-04-28T15:11:31.041Z,2.73
2018-04-28T15:13:58.437Z,3.10
2018-04-28T15:16:25.869Z,4.60
2018-04-28T15:18:53.361Z,3.10
2018-04-28T15:21:20.741Z,2.57
2018-04-28T15:23:48.177Z,2.80
2018-04-28T15:26:15.623Z,2.93
2018-04-28T15:28:43.017Z,3.00
2018-04-28T15:31:10.462Z,3.80
2018-04-28T15:33:37.889Z,3.17
2018-04-28T15:36:05.289Z,2.87
2018-04-28T15:38:32.718Z,3.90
2018-04-28T15:41:00.150Z,2.97
2018-04-28T15:43:27.495Z,3.70
2018-04-28T15:45:54.969Z,4.83
2018-04-28T15:48:22.422Z,2.90
2018-04-28T15:50:49.845Z,3.20
2018-04-28T15:53:17.354Z,4.00
2018-04-28T15:55:44.757Z,3.50
2018-04-28T15:58:12.145Z,3.40
2018-04-28T16:00:39.552Z,3.67
2018-04-28T16:03:06.964Z,3.03
2018-04-28T16:05:34.424Z,3.60
2018-04-28T16:08:01.814Z,3.00
2018-04-28T16:10:29.204Z,3.27
2018-04-28T16:12:56.595Z,2.93
2018-04-28T16:15:24.076Z,3.97
2018-04-28T16:17:51.481Z,3.63
2018-04-28T16:20:18.957Z,3.70
2018-04-28T16:22:46.348Z,3.00
2018-04-28T16:25:13.740Z,3.13
2018-04-28T16:27:41.229Z,3.70
2018-04-28T16:30:08.637Z,3.57
2018-04-28T16:32:36.037Z,2.53
2018-04-28T16:35:03.439Z,4.00
2018-04-28T16:37:30.853Z,2.77
2018-04-28T16:39:58.251Z,2.73
2018-04-28T16:42:25.645Z,3.60
2018-04-28T16:44:53.125Z,3.13
2018-04-28T16:47:20.582Z,4.03
2018-04-28T16:49:48.032Z,3.57
2018-04-28T16:52:15.498Z,3.37
2018-04-28T16:54:42.897Z,3.80
2018-04-28T16:57:10.308Z,4.30
2018-04-28T16:59:37.708Z,3.77
2018-04-28T17:02:05.133Z,3.80
2018-04-28T17:04:32.535Z,3.77
2018-04-28T17:06:59.913Z,4.00
2018-04-28T17:09:27.329Z,2.87
2018-04-28T17:11:54.745Z,3.53
2018-04-28T17:14:22.149Z,4.17
2018-04-28T17:16:49.546Z,3.70
2018-04-28T17:19:17.018Z,4.30
2018-04-28T17:21:44.417Z,4.20
2018-04-28T17:24:11.827Z,3.47
2018-04-28T17:26:39.234Z,4.07
2018-04-28T17:29:06.629Z,4.13
2018-04-28T17:31:34.092Z,4.47
2018-04-28T17:34:01.580Z,4.87
2018-04-28T17:36:28.977Z,5.00
2018-04-28T17:38:56.370Z,4.30
2018-04-28T17:41:23.781Z,4.07
2018-04-28T17:43:51.280Z,4.47
2018-04-28T17:46:18.707Z,4.30
2018-04-28T17:48:46.101Z,3.80
2018-04-28T17:51:13.549Z,4.00
2018-04-28T17:53:40.940Z,4.70
2018-04-28T17:56:08.338Z,4.10
2018-04-28T17:58:35.759Z,5.37
2018-04-28T18:01:03.153Z,4.00
2018-04-28T18:03:30.545Z,4.27
2018-04-28T18:05:57.954Z,4.20
2018-04-28T18:08:25.357Z,3.73
2018-04-28T18:10:52.802Z,4.00
2018-04-28T18:13:20.200Z,4.10
2018-04-28T18:15:47.712Z,4.40
2018-04-28T18:18:15.160Z,4.70
2018-04-28T18:20:42.593Z,4.43
2018-04-28T18:23:10.078Z,5.20
2018-04-28T18:25:37.489Z,4.30
2018-04-28T18:28:04.873Z,4.90
2018-04-28T18:30:32.270Z,4.37
2018-04-28T18:32:59.685Z,5.33
2018-04-28T18:35:27.184Z,4.60
2018-04-28T18:37:54.600Z,4.10
2018-04-28T18:40:22.001Z,4.27
2018-04-28T18:42:49.442Z,4.20
2018-04-28T18:45:16.882Z,3.90
2018-04-28T18:47:44.256Z,3.77
2018-04-28T18:50:11.711Z,4.13
2018-04-28T18:52:39.100Z,4.70
2018-04-28T18:55:06.517Z,4.53
2018-04-28T18:57:33.977Z,3.90
2018-04-28T19:00:01.378Z,4.60
2018-04-28T19:02:28.773Z,4.60
2018-04-28T19:04:56.176Z,4.40
2018-04-28T19:07:23.575Z,5.50
2018-04-28T19:09:50.981Z,5.20
2018-04-28T19:12:19.282Z,4.63
2018-04-28T19:14:46.834Z,4.27
2018-04-28T19:17:14.339Z,4.80
2018-04-28T19:19:41.738Z,4.80
2018-04-28T19:22:09.207Z,6.00
2018-04-28T19:24:36.582Z,5.77
2018-04-28T19:27:03.960Z,7.20
2018-04-28T19:29:31.379Z,6.60
2018-04-28T19:31:58.780Z,4.90
2018-04-28T19:34:26.273Z,5.53
2018-04-28T19:36:53.705Z,6.50
2018-04-28T19:39:21.115Z,4.90
2018-04-28T19:41:48.509Z,5.60
2018-04-28T19:44:15.945Z,5.00
2018-04-28T19:46:43.357Z,5.30
2018-04-28T19:49:10.744Z,5.07
2018-04-28T19:51:38.144Z,5.23
2018-04-28T19:54:05.540Z,5.93
2018-04-28T19:56:32.996Z,5.57
2018-04-28T19:59:00.393Z,6.47
2018-04-28T20:01:27.813Z,7.95
2018-04-28T20:03:55.253Z,6.20
2018-04-28T20:06:22.659Z,6.50
2018-04-28T20:08:50.153Z,7.50
2018-04-28T20:11:17.577Z,8.67
2018-04-28T20:13:45.017Z,8.50
2018-04-28T20:16:12.441Z,8.93
2018-04-28T20:18:39.833Z,8.83
2018-04-28T20:21:07.259Z,9.47
2018-04-28T20:23:46.493Z,8.90
2018-04-28T20:26:13.889Z,9.27
2018-04-28T20:28:41.296Z,9.43
2018-04-28T20:31:08.701Z,9.07
2018-04-28T20:33:36.198Z,10.20
2018-04-28T20:36:03.677Z,9.13
2018-04-28T20:38:31.001Z,8.30
2018-04-28T20:40:58.482Z,9.17
2018-04-28T20:43:25.869Z,7.80
2018-04-28T20:45:53.292Z,8.70
2018-04-28T20:48:20.696Z,8.20
2018-04-28T20:50:48.192Z,8.17
2018-04-28T20:53:15.580Z,9.00
2018-04-28T20:55:43.004Z,7.40
2018-04-28T20:58:10.389Z,7.70
2018-04-28T21:00:37.845Z,7.50
2018-04-28T21:03:05.253Z,7.23
2018-04-28T21:05:32.665Z,8.30
2018-04-28T21:08:00.086Z,9.30
2018-04-28T21:10:27.508Z,10.60
2018-04-28T21:12:54.903Z,10.73
2018-04-28T21:15:22.288Z,9.50
2018-04-28T21:17:49.741Z,10.10
2018-04-28T21:20:17.149Z,8.80
2018-04-28T21:22:44.636Z,10.10
2018-04-28T21:25:12.021Z,9.90
2018-04-28T21:27:39.432Z,9.70
2018-04-28T21:30:06.853Z,9.23
2018-04-28T21:32:34.344Z,10.30
2018-04-28T21:35:01.733Z,9.53
2018-04-28T21:37:29.154Z,10.40
2018-04-28T21:39:56.552Z,10.40
2018-04-28T21:42:23.982Z,11.10
2018-04-28T21:44:51.432Z,9.00
2018-04-28T21:47:18.863Z,10.20
2018-04-28T21:49:46.253Z,10.13
2018-04-28T21:52:13.710Z,10.10
2018-04-28T21:54:41.130Z,11.33
2018-04-28T21:57:08.556Z,9.43
2018-04-28T21:59:35.997Z,8.53
2018-04-28T22:02:03.441Z,8.73
2018-04-28T22:04:30.825Z,8.80
2018-04-28T22:06:58.240Z,9.17
2018-04-28T22:09:25.636Z,9.40
2018-04-28T22:11:53.041Z,9.73
2018-04-28T22:14:20.449Z,9.63
2018-04-28T22:16:48.652Z,8.57
2018-04-28T22:19:16.060Z,8.47
2018-04-28T22:21:43.502Z,9.33
2018-04-28T22:24:10.985Z,9.30
2018-04-28T22:26:38.391Z,9.30
2018-04-28T22:29:05.816Z,8.87
2018-04-28T22:31:34.284Z,8.80
2018-04-28T22:34:01.683Z,8.77
2018-04-28T22:36:29.106Z,8.90
2018-04-28T22:38:56.577Z,9.50
2018-04-28T22:41:23.997Z,8.10
2018-04-28T22:43:51.409Z,9.83
2018-04-28T22:46:18.828Z,8.13
2018-04-28T22:48:46.329Z,7.37
2018-04-28T22:51:13.764Z,8.00
2018-04-28T22:53:41.150Z,7.93
2018-04-28T22:56:08.578Z,7.43
2018-04-28T22:58:35.969Z,7.50
2018-04-28T23:01:03.521Z,6.80
2018-04-28T23:03:30.904Z,7.07
2018-04-28T23:05:58.305Z,7.57
2018-04-28T23:08:25.706Z,7.50
2018-04-28T23:10:53.089Z,7.53
2018-04-28T23:13:20.600Z,8.63
2018-04-28T23:15:47.989Z,8.30
2018-04-28T23:18:15.425Z,8.57
2018-04-28T23:20:42.889Z,9.30
2018-04-28T23:23:10.313Z,8.60
2018-04-28T23:25:37.698Z,7.70
2018-04-28T23:28:05.132Z,7.80
2018-04-28T23:30:32.542Z,8.80
2018-04-28T23:32:59.960Z,9.00
2018-04-28T23:35:27.358Z,8.80
2018-04-28T23:37:54.877Z,8.53
2018-04-28T23:40:22.257Z,8.10
2018-04-28T23:42:49.701Z,7.90
2018-04-28T23:45:17.090Z,8.60
2018-04-28T23:47:44.500Z,8.83
2018-04-28T23:50:11.924Z,8.57
2018-04-28T23:52:39.331Z,8.83
2018-04-28T23:55:06.721Z,9.73
2018-04-28T23:57:34.217Z,9.50
